Time;durP1;ratioP1;P1;durP2;ratioP2;P2;SDS_P1;SDS_P2;PMS_P1;PMS_P2;Temp;Humidity;BMP_temperature;BMP_pressure;BME280_temperature;BME280_humidity;BME280_pressure;Samples;Min_cycle;Max_cycle;Signal;HPM_P1;HPM_P2
2020/12/22 00:02:12;;;;;;;0.90;0.68;;;10.40;99.90;;;11.06;95.57;99882.25;4957448;29;20451;-83
2020/12/22 00:04:38;;;;;;;1.10;0.77;;;10.50;99.90;;;11.06;95.67;99888.66;4971426;28;20038;-83
2020/12/22 00:07:04;;;;;;;1.83;0.73;;;10.50;99.90;;;11.14;95.54;99892.34;4970849;28;20035;-85
2020/12/22 00:09:29;;;;;;;0.73;0.73;;;10.50;99.90;;;11.22;95.50;99893.22;4956033;29;20035;-84
2020/12/22 00:11:55;;;;;;;1.30;0.80;;;10.60;99.90;;;11.28;95.23;99898.09;4956808;29;20081;-85
2020/12/22 00:14:21;;;;;;;2.90;1.08;;;10.60;99.90;;;11.34;94.88;99890.16;4971070;28;20364;-83
2020/12/22 00:16:47;;;;;;;1.48;0.90;;;10.60;99.90;;;11.33;95.03;99885.78;4955930;29;20447;-84
2020/12/22 00:19:13;;;;;;;1.65;0.63;;;10.70;99.90;;;11.37;94.42;99872.63;4970831;28;20503;-85
2020/12/22 00:21:39;;;;;;;1.83;0.88;;;10.70;99.90;;;11.50;94.00;99883.16;4970749;28;20102;-85
2020/12/22 00:24:06;;;;;;;0.80;0.80;;;10.80;99.90;;;11.55;93.77;99882.84;4955475;29;20035;-83
2020/12/22 00:26:32;;;;;;;0.98;0.93;;;10.80;99.90;;;11.56;94.02;99867.66;4970399;28;20041;-82
2020/12/22 00:28:58;;;;;;;1.35;0.95;;;10.90;99.90;;;11.63;93.53;99866.91;4955745;29;20031;-83
2020/12/22 00:31:24;;;;;;;1.77;0.70;;;10.90;99.90;;;11.65;93.52;99862.53;4970317;28;20082;-82
2020/12/22 00:33:50;;;;;;;0.98;0.80;;;11.10;99.90;;;11.69;93.06;99853.41;4970447;28;20075;-83
2020/12/22 00:36:16;;;;;;;0.60;0.60;;;11.10;99.90;;;11.76;93.18;99845.91;4970581;28;20050;-83
2020/12/22 00:38:44;;;;;;;0.80;0.65;;;11.20;99.90;;;11.78;93.23;99845.53;4970489;28;20086;-82
2020/12/22 00:41:15;;;;;;;2.42;1.00;;;11.10;99.90;;;11.79;93.20;99847.13;4954533;29;20031;-84
2020/12/22 00:43:43;;;;;;;2.35;0.55;;;11.20;99.90;;;11.90;93.24;99845.25;4955499;29;20050;-83
2020/12/22 00:46:15;;;;;;;1.10;0.60;;;11.30;99.90;;;11.92;93.17;99840.84;4970354;28;20035;-84
2020/12/22 00:48:48;;;;;;;1.38;0.70;;;11.30;99.90;;;11.88;93.28;99834.41;4969539;28;20038;-83
2020/12/22 00:51:23;;;;;;;0.98;0.63;;;11.20;99.90;;;11.82;93.32;99829.56;4955222;29;20102;-83
2020/12/22 00:53:49;;;;;;;1.60;0.60;;;11.30;99.90;;;11.86;93.10;99834.00;4962378;28;20075;-81
2020/12/22 00:56:16;;;;;;;0.93;0.60;;;11.30;99.90;;;11.94;92.69;99830.09;4951468;29;20032;-80
2020/12/22 00:58:43;;;;;;;3.15;0.45;;;11.40;99.90;;;12.11;92.10;99837.00;4955325;28;20023;-81
2020/12/22 01:01:10;;;;;;;0.63;0.50;;;11.40;99.90;;;12.17;92.11;99835.44;4951252;29;20036;-81
2020/12/22 01:03:36;;;;;;;0.70;0.63;;;11.50;99.90;;;12.14;91.87;99834.25;4951330;29;20031;-78
2020/12/22 01:06:02;;;;;;;0.68;0.45;;;11.60;99.90;;;12.21;91.96;99841.88;4953197;29;20051;-80
2020/12/22 01:08:28;;;;;;;0.50;0.50;;;11.60;99.90;;;12.27;91.80;99842.31;4970541;28;20772;-81
2020/12/22 01:10:54;;;;;;;1.58;0.70;;;11.60;99.90;;;12.33;91.90;99852.78;4970297;28;20035;-80
2020/12/22 01:13:20;;;;;;;2.05;0.60;;;11.70;99.90;;;12.43;91.16;99852.03;4970177;28;20030;-82
2020/12/22 01:15:46;;;;;;;2.25;0.60;;;11.70;99.90;;;12.42;91.94;99853.25;4954690;28;20133;-82
2020/12/22 01:18:13;;;;;;;1.15;0.73;;;11.70;99.90;;;12.46;91.46;99845.66;4970961;28;20535;-80
2020/12/22 01:20:39;;;;;;;0.85;0.60;;;11.70;99.90;;;12.42;92.22;99853.25;4956763;28;20027;-80
2020/12/22 01:23:05;;;;;;;1.08;0.60;;;11.80;99.90;;;12.55;91.30;99862.16;4971750;28;20152;-79
2020/12/22 01:25:31;;;;;;;1.25;0.80;;;11.90;99.90;;;12.54;91.60;99847.34;4955751;29;20043;-81
2020/12/22 01:27:56;;;;;;;0.70;0.70;;;11.80;99.90;;;12.63;91.62;99844.97;4972518;28;20027;-81
2020/12/22 01:30:22;;;;;;;1.73;1.15;;;12.00;99.90;;;12.63;92.01;99852.56;4973819;28;20035;-82
2020/12/22 01:32:50;;;;;;;0.95;0.85;;;12.00;99.90;;;12.67;92.23;99851.41;4971628;28;20028;-83
2020/12/22 01:35:15;;;;;;;1.10;0.90;;;12.00;99.90;;;12.75;92.67;99854.25;4970666;28;20114;-80
2020/12/22 01:37:41;;;;;;;1.13;0.90;;;12.00;99.90;;;12.58;94.46;99870.56;4955279;29;20058;-80
2020/12/22 01:40:08;;;;;;;1.83;0.90;;;12.00;99.90;;;12.66;94.05;99860.19;4955168;29;20058;-80
2020/12/22 01:42:34;;;;;;;1.55;0.88;;;11.90;99.90;;;12.61;95.29;99854.97;4969754;28;20031;-82
2020/12/22 01:45:00;;;;;;;2.33;1.10;;;12.00;99.90;;;12.42;96.77;99855.25;4969994;28;20628;-82
2020/12/22 01:47:27;;;;;;;3.80;0.98;;;11.90;99.90;;;12.51;96.32;99862.13;4969250;28;20487;-82
2020/12/22 01:49:56;;;;;;;1.55;0.80;;;11.80;99.90;;;12.47;96.87;99857.69;4970489;28;20166;-83
2020/12/22 01:52:22;;;;;;;1.83;1.00;;;11.90;99.90;;;12.52;97.06;99862.94;4955488;28;20039;-82
2020/12/22 01:54:48;;;;;;;1.35;0.90;;;11.90;99.90;;;12.66;95.94;99858.19;4952806;29;20035;-81
2020/12/22 01:57:14;;;;;;;2.05;0.98;;;11.90;99.90;;;12.61;96.28;99854.97;4968760;28;20032;-80
2020/12/22 01:59:40;;;;;;;0.73;0.70;;;11.90;99.90;;;12.61;96.28;99855.78;4969341;28;20538;-81
2020/12/22 02:02:07;;;;;;;1.25;1.00;;;11.80;99.90;;;12.55;96.63;99845.34;4972705;28;20110;-82
2020/12/22 02:04:36;;;;;;;1.92;1.10;;;11.90;99.90;;;12.55;97.00;99845.34;4957838;28;20480;-81
2020/12/22 02:07:02;;;;;;;1.13;1.00;;;11.90;99.90;;;12.64;96.67;99845.78;4972594;28;20042;-80
2020/12/22 02:09:28;;;;;;;1.50;1.13;;;11.90;99.90;;;12.65;96.61;99855.78;4956805;29;20438;-82
2020/12/22 02:11:54;;;;;;;1.15;1.05;;;12.00;99.90;;;12.68;96.51;99849.41;4956352;29;20059;-80
2020/12/22 02:14:20;;;;;;;3.75;1.23;;;12.10;99.90;;;12.80;96.19;99843.47;4972427;28;20114;-82
2020/12/22 02:16:46;;;;;;;1.30;1.20;;;12.10;99.90;;;12.78;96.16;99831.06;4956362;29;20470;-81
2020/12/22 02:19:12;;;;;;;2.55;1.35;;;12.10;99.90;;;12.74;96.68;99836.66;4957530;28;20031;-81
2020/12/22 02:21:38;;;;;;;1.30;1.20;;;12.10;99.90;;;12.81;96.75;99833.84;4972380;28;20034;-82
2020/12/22 02:24:03;;;;;;;1.20;1.10;;;12.10;99.90;;;12.87;96.33;99837.91;4972482;28;20043;-81
2020/12/22 02:26:31;;;;;;;2.55;1.52;;;12.20;99.90;;;12.93;95.98;99835.53;4957392;29;20114;-80
2020/12/22 02:28:56;;;;;;;1.67;1.48;;;12.20;99.90;;;13.06;95.86;99836.78;4972329;28;20028;-81
2020/12/22 02:31:25;;;;;;;2.08;1.35;;;12.20;99.90;;;13.02;95.67;99850.78;4972210;28;20023;-80
2020/12/22 02:33:53;;;;;;;2.47;1.38;;;12.30;99.90;;;13.04;95.48;99839.97;4972038;28;20057;-81
2020/12/22 02:36:19;;;;;;;2.03;1.63;;;12.30;99.90;;;13.18;95.07;99844.88;4956053;29;20078;-81
2020/12/22 02:38:45;;;;;;;2.28;1.70;;;12.40;99.90;;;13.20;94.75;99839.66;4972288;28;20439;-81
2020/12/22 02:41:11;;;;;;;3.67;1.35;;;12.60;99.90;;;13.41;94.00;99836.13;4972198;28;20073;-82
2020/12/22 02:43:38;;;;;;;3.58;1.25;;;12.70;99.90;;;13.46;93.65;99835.72;4956042;29;20503;-81
2020/12/22 02:46:04;;;;;;;3.38;1.80;;;12.70;99.90;;;13.42;94.19;99838.53;4971682;28;20131;-81
2020/12/22 02:48:30;;;;;;;1.52;1.42;;;12.70;99.90;;;13.41;94.56;99838.94;4957043;28;20054;-80
2020/12/22 02:50:56;;;;;;;1.60;1.50;;;12.70;99.90;;;13.43;94.60;99848.56;4955681;29;20484;-80
2020/12/22 02:53:22;;;;;;;3.13;1.52;;;12.70;99.90;;;13.58;93.63;99843.81;4971791;28;20031;-81
2020/12/22 02:55:48;;;;;;;1.55;1.40;;;12.80;99.90;;;13.57;93.65;99845.78;4954982;28;20102;-81
2020/12/22 02:58:15;;;;;;;1.45;1.30;;;12.80;99.90;;;13.56;93.68;99844.19;4971692;28;20495;-81
2020/12/22 03:00:42;;;;;;;1.88;1.38;;;12.90;99.90;;;13.60;93.19;99833.78;4955447;29;20103;-80
2020/12/22 03:03:09;;;;;;;1.95;1.08;;;12.90;99.90;;;13.65;93.52;99838.97;4955507;29;20042;-81
2020/12/22 03:05:35;;;;;;;1.30;0.90;;;12.90;99.90;;;13.79;92.43;99854.25;4971226;28;20496;-80
2020/12/22 03:08:02;;;;;;;1.65;0.88;;;13.00;99.90;;;13.82;91.92;99839.41;4971416;28;20032;-81
2020/12/22 03:10:28;;;;;;;2.40;0.85;;;13.20;99.90;;;13.91;91.56;99846.22;4971331;28;20115;-82
2020/12/22 03:12:54;;;;;;;2.65;1.10;;;13.10;99.90;;;13.86;91.50;99838.22;4970390;28;20122;-80
2020/12/22 03:15:20;;;;;;;2.42;1.00;;;13.20;99.90;;;13.95;91.48;99844.25;4971350;28;20376;-81
2020/12/22 03:17:45;;;;;;;1.85;1.10;;;13.20;99.90;;;13.97;91.26;99830.59;4955307;29;20035;-81
2020/12/22 03:20:14;;;;;;;1.92;0.90;;;13.20;99.90;;;13.94;91.61;99844.63;4956419;29;20102;-81
2020/12/22 03:22:42;;;;;;;1.50;0.70;;;13.30;99.90;;;14.03;90.97;99834.59;4956457;28;20035;-80
2020/12/22 03:25:12;;;;;;;1.85;0.60;;;13.40;99.90;;;14.13;90.38;99839.41;4971076;28;20036;-80
2020/12/22 03:27:39;;;;;;;1.27;0.60;;;13.40;99.90;;;14.14;90.61;99827.00;4955818;29;20089;-80
2020/12/22 03:30:10;;;;;;;4.32;1.33;;;13.40;99.90;;;14.14;90.32;99843.03;4955884;29;20031;-81
2020/12/22 03:32:38;;;;;;;3.55;0.65;;;13.50;99.90;;;14.20;89.72;99839.41;4957118;28;20123;-80
2020/12/22 03:35:08;;;;;;;1.15;0.57;;;13.50;99.90;;;14.18;90.02;99841.84;4955428;29;20023;-80
2020/12/22 03:37:34;;;;;;;2.05;0.82;;;13.60;99.90;;;14.31;89.23;99838.63;4956697;28;20035;-81
2020/12/22 03:40:00;;;;;;;1.23;0.50;;;13.60;99.90;;;14.29;89.41;99833.38;4971360;28;20063;-81
2020/12/22 03:42:27;;;;;;;1.50;0.32;;;13.60;99.90;;;14.38;89.14;99845.06;4956758;28;20026;-78
2020/12/22 03:44:54;;;;;;;4.18;0.68;;;13.60;99.90;;;14.32;89.54;99846.63;4955042;29;20395;-79
2020/12/22 03:47:20;;;;;;;2.60;0.60;;;13.60;99.90;;;14.32;89.79;99843.81;4955252;29;20031;-82
2020/12/22 03:49:46;;;;;;;1.33;0.50;;;13.60;99.90;;;14.34;89.59;99840.66;4971436;28;20031;-80
2020/12/22 03:52:11;;;;;;;0.65;0.40;;;13.60;99.90;;;14.34;89.69;99865.94;4971248;28;20399;-81
2020/12/22 03:54:38;;;;;;;1.15;0.50;;;13.60;99.90;;;14.37;89.06;99842.66;4955366;29;20484;-80
2020/12/22 03:57:06;;;;;;;1.70;0.50;;;13.70;99.90;;;14.33;89.43;99839.00;4955355;29;20035;-80
2020/12/22 03:59:33;;;;;;;0.82;0.57;;;13.60;99.90;;;14.37;89.26;99842.66;4956721;28;20440;-79
2020/12/22 04:02:03;;;;;;;1.77;0.50;;;13.70;99.90;;;14.46;88.59;99855.06;4972459;28;20035;-80
2020/12/22 04:04:30;;;;;;;0.60;0.40;;;13.70;99.90;;;14.42;89.09;99856.28;4971220;28;20042;-81
2020/12/22 04:06:56;;;;;;;0.95;0.50;;;13.70;99.90;;;14.37;89.21;99839.84;4971006;28;20062;-80
2020/12/22 04:09:23;;;;;;;1.42;0.35;;;13.70;99.90;;;14.47;88.96;99839.03;4956328;29;20035;-81
2020/12/22 04:11:51;;;;;;;2.28;0.50;;;13.80;99.90;;;14.34;89.27;99823.78;4955436;29;20715;-81
2020/12/22 04:14:20;;;;;;;1.85;0.65;;;13.70;99.90;;;14.48;88.74;99835.03;4955310;29;20117;-80
2020/12/22 04:16:47;;;;;;;5.78;0.75;;;13.80;99.90;;;14.48;88.55;99838.59;4955821;29;20082;-82
2020/12/22 04:19:15;;;;;;;1.30;0.50;;;13.80;99.90;;;14.50;88.33;99857.88;4956283;29;20483;-80
2020/12/22 04:21:41;;;;;;;1.88;0.50;;;13.80;99.90;;;14.53;88.04;99859.88;4971322;28;20039;-79
2020/12/22 04:24:07;;;;;;;1.45;0.50;;;13.80;99.90;;;14.51;88.39;99860.28;4956041;28;20491;-79
2020/12/22 04:26:34;;;;;;;2.80;0.55;;;13.90;99.90;;;14.50;88.36;99872.75;4954558;29;20038;-80
2020/12/22 04:29:01;;;;;;;0.93;0.25;;;13.80;99.90;;;14.52;88.37;99861.09;4970858;28;20027;-81
2020/12/22 04:31:28;;;;;;;3.00;0.40;;;13.90;99.90;;;14.54;87.91;99855.88;4955867;28;20023;-80
2020/12/22 04:33:57;;;;;;;3.13;0.40;;;13.80;99.90;;;14.57;87.77;99877.56;4954406;29;20023;-80
2020/12/22 04:36:25;;;;;;;1.92;0.40;;;13.90;99.90;;;14.59;87.22;99875.94;4970349;28;20500;-81
2020/12/22 04:38:53;;;;;;;1.08;0.35;;;13.90;99.90;;;14.79;86.94;99884.72;4955722;28;20093;-81
2020/12/22 04:41:22;;;;;;;0.80;0.45;;;13.90;99.90;;;14.61;87.12;99883.94;4955932;28;20047;-79
2020/12/22 04:43:52;;;;;;;3.80;0.63;;;13.90;99.90;;;14.57;87.48;99885.97;4966374;28;20036;-81
2020/12/22 04:46:23;;;;;;;0.68;0.40;;;14.00;99.90;;;14.70;86.56;99889.97;4951009;29;20141;-79
2020/12/22 04:48:57;;;;;;;2.10;0.50;;;14.00;99.90;;;14.72;86.91;99876.31;4951278;29;20032;-80
2020/12/22 04:51:25;;;;;;;0.80;0.40;;;14.00;99.90;;;14.68;86.82;99879.13;4967129;28;20520;-81
2020/12/22 04:53:51;;;;;;;0.45;0.30;;;14.00;99.90;;;14.82;85.95;99889.53;4935614;29;20035;-81
2020/12/22 04:56:20;;;;;;;2.00;0.60;;;14.10;99.90;;;14.85;85.91;99897.16;4951008;29;20266;-80
2020/12/22 04:58:46;;;;;;;0.65;0.40;;;14.10;99.90;;;14.92;85.50;99913.22;4951379;28;20098;-80
2020/12/22 05:01:16;;;;;;;0.77;0.35;;;14.10;99.90;;;14.82;85.89;99885.94;4970555;28;20126;-81
2020/12/22 05:03:43;;;;;;;1.05;0.43;;;14.10;99.90;;;14.76;86.29;99896.78;4969986;28;20034;-81
2020/12/22 05:06:09;;;;;;;0.63;0.30;;;14.10;99.90;;;14.83;85.96;99898.78;4970169;28;20031;-81
2020/12/22 05:08:35;;;;;;;2.92;0.68;;;14.10;99.90;;;14.88;85.58;99904.78;4970124;28;20396;-81
2020/12/22 05:11:01;;;;;;;0.40;0.25;;;14.10;99.90;;;14.88;85.92;99916.03;4970056;28;20031;-80
2020/12/22 05:13:27;;;;;;;1.80;0.50;;;14.10;99.90;;;14.82;86.05;99919.66;4955250;29;20406;-80
2020/12/22 05:15:53;;;;;;;1.52;0.30;;;14.10;99.90;;;14.90;85.88;99919.22;4955156;29;20035;-81
2020/12/22 05:18:25;;;;;;;0.93;0.57;;;14.10;99.90;;;14.77;85.89;99910.41;4954765;29;20114;-80
2020/12/22 05:20:55;;;;;;;0.17;0.10;;;14.10;99.90;;;14.85;85.71;99907.59;4970167;28;20498;-78
2020/12/22 05:23:22;;;;;;;0.55;0.30;;;14.10;99.90;;;14.83;86.00;99916.47;4969954;28;20037;-80
2020/12/22 05:25:51;;;;;;;1.45;0.43;;;14.20;99.90;;;14.83;85.58;99907.22;4969805;28;20031;-80
2020/12/22 05:28:22;;;;;;;1.52;0.40;;;14.20;99.90;;;14.93;85.45;99912.03;4954062;29;20081;-80
2020/12/22 05:30:51;;;;;;;1.35;0.40;;;14.10;99.90;;;14.86;85.63;99912.84;4969706;28;20189;-80
2020/12/22 05:33:18;;;;;;;0.98;0.35;;;14.20;99.90;;;14.87;85.13;99906.00;4953794;29;20031;-79
2020/12/22 05:35:48;;;;;;;0.35;0.30;;;14.10;99.90;;;14.84;85.66;99920.84;4953291;28;20455;-80
2020/12/22 05:38:18;;;;;;;1.88;0.45;;;14.20;99.90;;;14.88;85.32;99912.41;4986886;23;20398;-82
2020/12/22 05:40:45;;;;;;;2.33;0.50;;;14.20;99.90;;;14.88;85.19;99915.22;4980119;28;20035;-83
2020/12/22 05:43:12;;;;;;;0.45;0.20;;;14.20;99.90;;;14.89;85.28;99909.22;4983596;28;20051;-83
2020/12/22 05:45:43;;;;;;;1.50;0.30;;;14.20;99.90;;;14.93;85.10;99926.84;4965494;28;20042;-81
2020/12/22 05:48:15;;;;;;;0.75;0.38;;;14.30;99.90;;;14.90;85.36;99918.47;4962625;29;20027;-82
2020/12/22 05:50:51;;;;;;;0.20;0.20;;;14.20;99.90;;;14.88;85.27;99924.47;4948234;29;20057;-82
2020/12/22 05:53:24;;;;;;;1.23;0.30;;;14.20;99.90;;;14.93;85.47;99929.66;4945356;29;20483;-81
2020/12/22 05:55:50;;;;;;;1.27;0.20;;;14.20;99.90;;;14.96;85.55;99925.28;4961528;29;20043;-82
2020/12/22 05:58:18;;;;;;;1.08;0.30;;;14.20;99.90;;;14.79;86.08;99918.47;4944307;29;20082;-81
2020/12/22 06:00:45;;;;;;;0.70;0.30;;;14.10;99.90;;;14.92;85.91;99930.91;4962263;29;20032;-81
2020/12/22 06:03:14;;;;;;;0.60;0.30;;;14.10;99.90;;;14.94;85.65;99936.91;4962015;29;20035;-83
2020/12/22 06:05:46;;;;;;;1.58;0.30;;;14.10;99.90;;;14.60;88.05;99936.56;4949006;29;20031;-82
2020/12/22 06:08:16;;;;;;;3.80;0.40;;;14.10;99.90;;;14.70;87.83;99946.19;4948780;29;20059;-82
2020/12/22 06:10:44;;;;;;;1.42;0.45;;;14.00;99.90;;;14.74;88.08;99946.97;4961579;29;20475;-83
2020/12/22 06:13:12;;;;;;;0.50;0.35;;;14.00;99.90;;;14.61;88.75;99948.59;4944850;29;20706;-83
2020/12/22 06:15:39;;;;;;;1.45;0.43;;;13.90;99.90;;;14.47;89.98;99942.97;4959268;29;20402;-83
2020/12/22 06:18:06;;;;;;;0.65;0.38;;;13.90;99.90;;;14.37;91.43;99944.59;4941899;29;20031;-82
2020/12/22 06:20:33;;;;;;;0.20;0.20;;;13.80;99.90;;;14.44;91.58;99955.03;4957928;29;20027;-82
2020/12/22 06:23:08;;;;;;;0.57;0.20;;;13.70;99.90;;;14.28;92.22;99963.81;4959001;29;20031;-82
2020/12/22 06:25:35;;;;;;;0.30;0.30;;;13.60;99.90;;;14.24;92.79;99971.44;4958411;29;20035;-83
2020/12/22 06:28:14;;;;;;;1.35;0.40;;;13.50;99.90;;;14.27;92.53;99973.44;4959359;28;20032;-80
2020/12/22 06:30:40;;;;;;;1.13;0.57;;;13.50;99.90;;;14.26;92.73;99974.63;4958825;29;20034;-83
2020/12/22 06:33:26;;;;;;;0.65;0.20;;;13.50;99.90;;;14.25;92.72;99962.59;4941788;29;20027;-84
2020/12/22 06:36:15;;;;;;;0.50;0.32;;;13.50;99.90;;;14.31;92.98;99977.06;4959280;29;20027;-81
2020/12/22 06:38:58;;;;;;;1.17;0.40;;;13.50;99.90;;;14.26;93.49;99978.25;4941599;29;20375;-84
2020/12/22 06:41:33;;;;;;;0.85;0.52;;;13.50;99.90;;;14.19;94.54;99999.91;4941095;29;20027;-84
2020/12/22 06:44:27;;;;;;;4.55;0.43;;;13.40;99.90;;;14.05;95.66;99992.25;4961137;29;20491;-83
2020/12/22 06:46:59;;;;;;;3.22;0.60;;;13.40;99.90;;;14.00;95.17;100003.06;4963250;28;20296;-84
2020/12/22 06:49:51;;;;;;;1.75;0.80;;;13.30;99.90;;;14.14;94.73;100003.91;4965252;28;20056;-80
2020/12/22 06:52:46;;;;;;;1.40;0.60;;;13.30;99.90;;;14.02;94.90;100000.66;4961389;29;20063;-83
2020/12/22 06:55:12;;;;;;;1.23;0.55;;;13.30;99.90;;;13.98;94.90;99997.03;4962799;29;20027;-83
2020/12/22 06:57:47;;;;;;;1.88;0.50;;;13.30;99.90;;;14.05;94.96;99997.88;4963925;28;20031;-80
2020/12/22 07:00:29;;;;;;;3.53;0.55;;;13.20;99.90;;;14.07;94.59;100014.31;4947667;29;20031;-82
2020/12/22 07:03:17;;;;;;;1.20;0.60;;;13.20;99.90;;;14.06;94.34;100010.69;4967218;29;20034;-83
2020/12/22 07:05:49;;;;;;;1.17;0.30;;;13.20;99.90;;;14.17;93.82;100008.72;4964107;29;20468;-83
2020/12/22 07:08:17;;;;;;;2.22;0.40;;;13.30;99.90;;;14.11;93.83;100024.34;4968500;28;20034;-82
2020/12/22 07:10:50;;;;;;;0.70;0.43;;;13.30;99.90;;;14.11;94.07;100013.13;4966871;29;20023;-84
2020/12/22 07:13:19;;;;;;;1.60;0.60;;;13.30;99.90;;;14.25;92.36;100015.16;4965606;29;20042;-81
2020/12/22 07:15:49;;;;;;;1.70;0.50;;;13.40;99.90;;;14.29;92.58;100018.00;4963655;29;20035;-83
2020/12/22 07:18:20;;;;;;;1.27;0.60;;;13.40;99.90;;;14.17;93.06;100014.34;4964897;28;20032;-83
2020/12/22 07:20:49;;;;;;;1.75;0.70;;;13.50;99.90;;;14.21;92.71;100025.59;4964917;29;20454;-83
2020/12/22 07:23:16;;;;;;;1.85;0.50;;;13.40;99.90;;;14.23;92.25;100028.78;4963892;29;20041;-82
2020/12/22 07:25:43;;;;;;;2.20;0.77;;;13.40;99.90;;;14.25;92.26;100035.63;4946885;29;20035;-83
2020/12/22 07:28:11;;;;;;;0.80;0.80;;;13.40;99.90;;;14.20;91.92;100026.78;4963833;28;20031;-83
2020/12/22 07:30:38;;;;;;;1.05;0.52;;;13.50;99.90;;;14.20;91.32;100040.81;4964368;29;20030;-83
2020/12/22 07:33:05;;;;;;;3.38;0.85;;;13.50;99.90;;;14.25;91.75;100037.66;4966452;29;20070;-84
2020/12/22 07:35:33;;;;;;;0.98;0.60;;;13.50;99.90;;;14.17;92.17;100048.03;4968930;29;20038;-81
2020/12/22 07:38:08;;;;;;;3.15;0.70;;;13.50;99.90;;;14.16;91.98;100042.81;4978558;28;20019;-81
2020/12/22 07:40:42;;;;;;;2.05;0.90;;;13.50;99.90;;;14.33;90.75;100036.47;4965455;29;20548;-81
2020/12/22 07:43:13;;;;;;;1.13;0.82;;;13.50;99.90;;;14.27;90.61;100043.66;4961629;29;20059;-84
2020/12/22 07:45:52;;;;;;;1.23;0.93;;;13.50;99.90;;;14.34;90.20;100042.91;4943427;29;20102;-83
2020/12/22 07:48:19;;;;;;;3.40;1.00;;;13.50;99.90;;;14.16;90.55;100052.03;4959559;28;20312;-83
2020/12/22 07:50:53;;;;;;;2.05;0.93;;;13.50;99.90;;;14.26;90.18;100059.69;4959125;29;20027;-83
2020/12/22 07:53:20;;;;;;;0.95;0.68;;;13.50;99.90;;;14.23;90.07;100063.31;4959642;29;20035;-82
2020/12/22 07:55:45;;;;;;;1.00;0.63;;;13.50;99.90;;;14.26;89.42;100056.88;4959723;29;20031;-83
2020/12/22 07:58:13;;;;;;;1.95;1.15;;;13.50;99.90;;;14.20;89.89;100064.09;4942731;29;20027;-83
2020/12/22 08:00:40;;;;;;;1.33;0.50;;;13.50;99.90;;;14.25;89.76;100060.09;4961028;29;20023;-82
2020/12/22 08:03:18;;;;;;;0.98;0.50;;;13.60;99.90;;;14.35;89.27;100061.38;4959119;29;20505;-83
2020/12/22 08:06:01;;;;;;;1.02;0.60;;;13.50;99.90;;;14.37;88.81;100079.44;4963342;29;20039;-82
2020/12/22 08:08:27;;;;;;;1.95;0.40;;;13.60;99.90;;;14.41;88.10;100079.44;4943575;29;20031;-84
2020/12/22 08:10:53;;;;;;;0.82;0.55;;;13.60;99.90;;;14.48;87.43;100085.09;4962102;29;20331;-83
2020/12/22 08:13:28;;;;;;;1.25;0.52;;;13.70;99.90;;;14.50;87.34;100071.44;4961533;29;20077;-83
2020/12/22 08:15:56;;;;;;;1.10;0.55;;;13.70;99.90;;;14.51;87.26;100084.28;4963797;29;20454;-83
2020/12/22 08:18:25;;;;;;;1.38;0.70;;;13.60;99.90;;;14.36;87.37;100091.06;4961289;28;20027;-83
2020/12/22 08:20:57;;;;;;;2.40;0.63;;;13.70;99.90;;;14.39;87.01;100093.88;4960708;29;20064;-84
2020/12/22 08:23:25;;;;;;;0.98;0.52;;;13.70;99.90;;;14.57;86.67;100091.13;4962121;29;20404;-82
2020/12/22 08:25:52;;;;;;;2.67;0.82;;;13.70;99.90;;;14.47;87.05;100097.50;4962896;29;20030;-84
2020/12/22 08:28:27;;;;;;;1.02;0.65;;;13.60;99.90;;;14.41;86.92;100105.53;4961276;28;20078;-84
2020/12/22 08:30:54;;;;;;;2.53;0.82;;;13.60;99.90;;;14.52;86.21;100105.53;4968725;29;20024;-84
2020/12/22 08:33:22;;;;;;;1.38;0.60;;;13.60;99.90;;;14.44;86.59;100113.16;4967103;29;20090;-84
2020/12/22 08:35:50;;;;;;;1.67;0.82;;;13.60;99.90;;;14.47;86.49;100117.19;4963131;29;20039;-82
2020/12/22 08:38:27;;;;;;;3.20;0.63;;;13.70;99.90;;;14.42;86.22;100117.56;4946942;29;20049;-84
2020/12/22 08:40:55;;;;;;;2.05;0.70;;;13.70;99.90;;;14.51;85.69;100126.44;4963123;29;20046;-83
2020/12/22 08:43:24;;;;;;;1.77;0.50;;;13.70;99.90;;;14.50;85.85;100128.44;4962398;29;20058;-84
2020/12/22 08:45:52;;;;;;;2.28;0.50;;;13.70;99.90;;;14.45;85.70;100130.84;4977684;29;20039;-84
2020/12/22 08:48:18;;;;;;;1.83;0.57;;;13.70;99.90;;;14.54;85.09;100131.25;4977513;28;20019;-82
2020/12/22 08:50:52;;;;;;;1.27;0.50;;;13.70;99.90;;;14.51;85.24;100134.88;4976428;29;20031;-81
2020/12/22 08:53:18;;;;;;;5.20;0.60;;;13.70;99.90;;;14.42;85.57;100142.84;4959081;29;20023;-82
2020/12/22 08:55:44;;;;;;;1.85;0.82;;;13.70;99.90;;;14.50;85.21;100142.47;4943327;29;20039;-82
2020/12/22 08:58:10;;;;;;;2.20;0.57;;;13.70;99.90;;;14.60;85.12;100152.16;4961243;28;20031;-84
2020/12/22 09:00:36;;;;;;;3.38;0.57;;;13.80;99.90;;;14.66;85.38;100153.38;4959719;29;20038;-83
2020/12/22 09:03:02;;;;;;;1.95;0.60;;;13.80;99.90;;;14.47;87.64;100154.53;4960931;29;20042;-84
2020/12/22 09:05:31;;;;;;;2.30;0.90;;;13.70;99.90;;;14.38;88.82;100151.28;4961139;29;20503;-81
2020/12/22 09:08:20;;;;;;;2.78;0.80;;;13.60;99.90;;;14.26;90.10;100166.44;4959859;28;20043;-84
2020/12/22 09:11:54;;;;;;;1.38;0.70;;;13.50;99.90;;;14.28;90.18;100168.88;4959507;28;20023;-83
2020/12/22 09:14:21;;;;;;;1.02;0.50;;;13.40;99.90;;;14.46;88.89;100163.34;4897857;29;20118;-82
2020/12/22 09:16:56;;;;;;;2.55;1.00;;;13.50;99.90;;;14.39;87.04;100168.91;4962199;29;20031;-81
2020/12/22 09:19:49;;;;;;;3.90;1.50;;;13.50;99.90;;;14.36;87.17;100183.75;4960537;28;20061;-82
2020/12/22 09:22:27;;;;;;;2.35;1.20;;;13.50;99.90;;;14.30;86.32;100174.88;4961958;29;20306;-82
2020/12/22 09:24:59;;;;;;;3.50;1.25;;;13.50;99.90;;;14.27;86.42;100182.09;4962921;29;20034;-81
2020/12/22 09:27:38;;;;;;;2.50;1.00;;;13.40;99.90;;;14.37;86.67;100191.81;4961687;29;20059;-82
2020/12/22 09:30:15;;;;;;;1.98;1.02;;;13.50;99.90;;;14.36;86.64;100189.38;4959675;29;20065;-84
2020/12/22 09:32:45;;;;;;;2.42;1.10;;;13.50;99.90;;;14.45;86.55;100203.88;4959684;29;20044;-81
2020/12/22 09:35:12;;;;;;;1.45;0.88;;;13.60;99.90;;;14.36;87.05;100195.81;4959248;29;20031;-82
2020/12/22 09:37:40;;;;;;;3.22;0.93;;;13.50;99.90;;;14.31;87.06;100206.59;4959417;28;20034;-82
2020/12/22 09:40:07;;;;;;;2.35;0.80;;;13.50;99.90;;;14.31;88.05;100203.78;4960780;29;20095;-81
2020/12/22 09:42:33;;;;;;;2.85;1.10;;;13.50;99.90;;;14.17;88.98;100210.94;4959319;29;20035;-83
2020/12/22 09:44:58;;;;;;;4.70;1.38;;;13.30;99.90;;;14.17;89.15;100208.13;4961283;29;20103;-83
2020/12/22 09:47:27;;;;;;;4.00;1.02;;;13.30;99.90;;;14.06;88.46;100220.50;4959911;29;20486;-82
2020/12/22 09:49:53;;;;;;;2.70;1.50;;;13.30;99.90;;;14.26;87.43;100222.63;4963891;28;20031;-82
2020/12/22 09:52:19;;;;;;;1.00;0.90;;;13.30;99.90;;;14.30;85.61;100224.63;4945570;29;20122;-83
2020/12/22 09:54:49;;;;;;;3.03;1.20;;;13.40;99.90;;;14.41;86.08;100234.78;4945827;29;20046;-81
2020/12/22 09:57:15;;;;;;;5.47;1.00;;;13.50;99.90;;;14.37;85.41;100233.94;4963083;29;20035;-82
2020/12/22 09:59:42;;;;;;;2.67;1.23;;;13.50;99.90;;;14.41;84.56;100229.16;4966930;28;20042;-82
2020/12/22 10:02:07;;;;;;;3.42;1.10;;;13.50;99.90;;;14.49;83.10;100253.25;4957423;29;20035;-82
2020/12/22 10:04:35;;;;;;;1.80;1.02;;;13.60;99.90;;;14.49;83.06;100236.41;4969787;29;20039;-81
2020/12/22 10:07:03;;;;;;;2.50;0.80;;;13.60;99.90;;;14.49;83.21;100235.59;4939208;29;20031;-82
2020/12/22 10:09:29;;;;;;;2.75;1.15;;;13.60;99.90;;;14.43;83.66;100237.97;4958816;28;20155;-84
2020/12/22 10:11:56;;;;;;;3.60;1.60;;;13.60;99.90;;;14.26;84.07;100245.09;4958248;29;20118;-82
2020/12/22 10:14:21;;;;;;;3.97;1.65;;;13.50;99.90;;;14.35;83.28;100249.59;4955673;29;20550;-82
2020/12/22 10:16:47;;;;;;;7.45;1.90;;;13.40;99.90;;;14.26;82.73;100258.31;4955988;29;20031;-83
2020/12/22 10:19:13;;;;;;;3.38;1.02;;;13.40;99.90;;;14.25;81.31;100251.88;4955214;28;20062;-81
2020/12/22 10:21:39;;;;;;;4.30;1.45;;;13.40;99.90;;;14.32;81.41;100255.97;4955823;28;20043;-82
2020/12/22 10:24:05;;;;;;;5.28;1.38;;;13.40;99.90;;;14.32;81.14;100242.69;4958972;29;20046;-81
2020/12/22 10:26:33;;;;;;;3.70;1.20;;;13.40;99.90;;;14.41;80.99;100253.63;4958786;29;20450;-81